Time;durP1;ratioP1;P1;durP2;ratioP2;P2;SDS_P1;SDS_P2;PMS_P1;PMS_P2;Temp;Humidity;BMP_temperature;BMP_pressure;BME280_temperature;BME280_humidity;BME280_pressure;Samples;Min_cycle;Max_cycle;Signal;HPM_P1;HPM_P2
2022/09/16 00:00:24;;;;;;;2.58;2.20;;;;;;;;;;2032013;29;20174;-90
2022/09/16 00:01:24;;;;;;;4.35;2.70;;;;;;;;;;2024071;29;20472;-90
2022/09/16 00:02:25;;;;;;;7.43;2.83;;;;;;;;;;2023887;29;20120;-88
2022/09/16 00:03:25;;;;;;;5.28;4.22;;;;;;;;;;2031886;29;20492;-90
2022/09/16 00:04:26;;;;;;;6.85;2.67;;;;;;;;;;2031722;29;20027;-90
2022/09/16 00:05:26;;;;;;;5.25;2.55;;;;;;;;;;2023880;29;20128;-89
2022/09/16 00:06:28;;;;;;;3.60;2.55;;;;;;;;;;1686316;29;10000919;-90
2022/09/16 00:07:29;;;;;;;3.17;2.63;;;;;;;;;;2023981;29;20051;-90
2022/09/16 00:08:30;;;;;;;4.18;2.75;;;;;;;;;;2023960;29;20511;-89
2022/09/16 00:09:31;;;;;;;3.42;2.40;;;;;;;;;;2032442;29;20055;-89
2022/09/16 00:10:31;;;;;;;5.97;2.90;;;;;;;;;;2023993;29;20618;-89
2022/09/16 00:11:36;;;;;;;2.92;2.42;;;;;;;;;;2024133;29;20080;-90
2022/09/16 00:12:36;;;;;;;3.35;2.78;;;;;;;;;;2032480;29;20406;-90
2022/09/16 00:13:37;;;;;;;3.13;2.45;;;;;;;;;;2032444;29;20066;-90
2022/09/16 00:14:38;;;;;;;6.03;2.40;;;;;;;;;;2032587;29;20051;-89
2022/09/16 00:15:43;;;;;;;3.78;2.63;;;;;;;;;;2032361;29;20039;-90
2022/09/16 00:16:43;;;;;;;2.83;2.53;;;;;;;;;;2024173;29;20524;-89
2022/09/16 00:17:44;;;;;;;4.93;2.67;;;;;;;;;;2016184;29;20158;-89
2022/09/16 00:18:44;;;;;;;3.50;2.88;;;;;;;;;;2024020;29;20033;-89
2022/09/16 00:19:45;;;;;;;3.97;3.20;;;;;;;;;;2023926;29;20028;-89
2022/09/16 00:20:51;;;;;;;3.95;2.65;;;;;;;;;;2024001;29;20060;-89
2022/09/16 00:21:51;;;;;;;4.20;2.70;;;;;;;;;;2023773;29;20084;-89
2022/09/16 00:22:51;;;;;;;5.65;3.00;;;;;;;;;;2016104;29;20037;-89
2022/09/16 00:23:53;;;;;;;4.05;2.53;;;;;;;;;;2016122;29;20080;-89
2022/09/16 00:24:54;;;;;;;3.63;2.72;;;;;;;;;;2024197;29;20036;-89
2022/09/16 00:25:54;;;;;;;5.10;3.13;;;;;;;;;;2031700;29;20024;-89
2022/09/16 00:26:55;;;;;;;7.60;2.58;;;;;;;;;;2031766;29;20130;-89
2022/09/16 00:27:56;;;;;;;2.97;2.58;;;;;;;;;;2030444;29;20087;-89
2022/09/16 00:28:56;;;;;;;4.68;2.70;;;;;;;;;;2031694;29;20024;-89
2022/09/16 00:29:56;;;;;;;4.43;2.83;;;;;;;;;;2032271;29;20028;-89
2022/09/16 00:30:58;;;;;;;5.03;2.80;;;;;;;;;;2032306;29;20035;-89
2022/09/16 00:31:59;;;;;;;4.95;2.67;;;;;;;;;;2023817;29;20445;-89
2022/09/16 00:32:59;;;;;;;4.78;2.72;;;;;;;;;;2023818;29;20031;-90
2022/09/16 00:34:00;;;;;;;3.40;2.45;;;;;;;;;;2023912;29;20036;-89
2022/09/16 00:35:00;;;;;;;5.47;2.72;;;;;;;;;;2032233;29;20028;-90
2022/09/16 00:36:12;;;;;;;4.15;3.05;;;;;;;;;;2031594;29;20028;-89
2022/09/16 00:37:13;;;;;;;3.38;2.72;;;;;;;;;;2031559;29;20087;-89
2022/09/16 00:38:14;;;;;;;2.50;2.30;;;;;;;;;;2023679;29;20036;-89
2022/09/16 00:39:15;;;;;;;5.10;2.40;;;;;;;;;;2023944;29;20044;-89
2022/09/16 00:40:15;;;;;;;4.32;2.83;;;;;;;;;;2031563;29;20040;-90
2022/09/16 00:41:18;;;;;;;4.78;2.97;;;;;;;;;;2023665;29;20021;-89
2022/09/16 00:42:18;;;;;;;5.82;3.13;;;;;;;;;;1678300;29;10233944;-89
2022/09/16 00:43:19;;;;;;;3.58;2.53;;;;;;;;;;2032251;29;20040;-89
2022/09/16 00:44:53;;;;;;;3.95;2.70;;;;;;;;;;2032203;29;20039;-89
2022/09/16 00:45:59;;;;;;;3.20;2.60;;;;;;;;;;2032486;29;20107;-90
2022/09/16 00:46:59;;;;;;;4.90;2.90;;;;;;;;;;2031496;29;20024;-89
2022/09/16 00:48:04;;;;;;;7.25;2.88;;;;;;;;;;2031602;29;20047;-90
2022/09/16 00:49:24;;;;;;;4.03;3.28;;;;;;;;;;2032184;29;20035;-90
2022/09/16 00:50:47;;;;;;;4.85;2.80;;;;;;;;;;2032310;29;20123;-90
2022/09/16 00:51:49;;;;;;;4.55;3.05;;;;;;;;;;2031639;29;20039;-90
2022/09/16 00:52:52;;;;;;;4.38;2.65;;;;;;;;;;2023617;29;20024;-90
2022/09/16 00:53:56;;;;;;;7.05;2.80;;;;;;;;;;2023555;29;20025;-90
2022/09/16 00:55:00;;;;;;;3.38;2.90;;;;;;;;;;2024475;29;20040;-90
2022/09/16 00:56:05;;;;;;;5.40;2.70;;;;;;;;;;2031574;29;20024;-90
2022/09/16 00:57:07;;;;;;;4.55;2.88;;;;;;;;;;2031491;29;20510;-90
2022/09/16 00:58:14;;;;;;;4.70;2.95;;;;;;;;;;2023543;29;20107;-90
2022/09/16 00:59:29;;;;;;;4.32;2.78;;;;;;;;;;2024281;29;20099;-90
2022/09/16 01:00:30;;;;;;;4.35;3.45;;;;;;;;;;2031366;29;20423;-89
2022/09/16 01:01:31;;;;;;;2.35;2.15;;;;;;;;;;2031340;29;20147;-89
2022/09/16 01:02:32;;;;;;;4.25;2.60;;;;;;;;;;2031941;29;20066;-89
2022/09/16 01:03:37;;;;;;;4.90;2.55;;;;;;;;;;2031382;29;20099;-89
2022/09/16 01:04:50;;;;;;;4.18;2.53;;;;;;;;;;2038917;29;20115;-90
2022/09/16 01:05:51;;;;;;;5.93;2.97;;;;;;;;;;2038641;29;20101;-90
2022/09/16 01:06:52;;;;;;;3.03;2.60;;;;;;;;;;2032106;29;20016;-90
2022/09/16 01:07:53;;;;;;;3.58;2.60;;;;;;;;;;2023547;29;20047;-90
2022/09/16 01:08:55;;;;;;;5.07;2.70;;;;;;;;;;2023638;29;20429;-90
2022/09/16 01:09:56;;;;;;;4.15;2.80;;;;;;;;;;2031381;29;20030;-90
2022/09/16 01:10:57;;;;;;;4.78;2.72;;;;;;;;;;2032053;29;20032;-90
2022/09/16 01:11:57;;;;;;;4.80;3.17;;;;;;;;;;2023405;29;20400;-90
2022/09/16 01:13:05;;;;;;;4.93;2.90;;;;;;;;;;2015698;29;20111;-89
2022/09/16 01:15:34;;;;;;;4.70;2.75;;;;;;;;;;2031593;29;20032;-90
2022/09/16 01:16:41;;;;;;;5.20;2.70;;;;;;;;;;2031316;29;20507;-90
2022/09/16 01:17:53;;;;;;;5.50;2.55;;;;;;;;;;2031394;29;20272;-89
2022/09/16 01:19:23;;;;;;;3.85;2.70;;;;;;;;;;2032181;29;20020;-89
2022/09/16 01:21:01;;;;;;;4.18;2.63;;;;;;;;;;2023905;29;20048;-90
2022/09/16 01:22:35;;;;;;;3.28;2.80;;;;;;;;;;2031296;29;20024;-89
2022/09/16 01:23:54;;;;;;;4.03;2.88;;;;;;;;;;2031646;29;20028;-90
2022/09/16 01:25:25;;;;;;;4.13;2.67;;;;;;;;;;2031371;29;20079;-90
2022/09/16 01:26:41;;;;;;;4.32;2.80;;;;;;;;;;2031544;29;20024;-90
2022/09/16 01:28:13;;;;;;;3.90;2.70;;;;;;;;;;2023376;29;20032;-90
2022/09/16 01:29:51;;;;;;;4.78;2.67;;;;;;;;;;2027701;29;20119;-89
2022/09/16 01:31:22;;;;;;;5.43;2.85;;;;;;;;;;2028772;29;20472;-90
2022/09/16 01:32:32;;;;;;;5.30;3.00;;;;;;;;;;1348033;29;10002054;-89
2022/09/16 01:33:39;;;;;;;4.32;2.55;;;;;;;;;;2016159;29;20524;-89
2022/09/16 01:34:51;;;;;;;5.70;2.55;;;;;;;;;;2024302;29;20040;-90
2022/09/16 01:36:34;;;;;;;4.72;2.63;;;;;;;;;;2023471;29;20139;-90
2022/09/16 01:38:01;;;;;;;3.80;2.40;;;;;;;;;;2021354;29;20151;-90
2022/09/16 01:39:11;;;;;;;7.30;2.50;;;;;;;;;;2026809;29;20645;-90
2022/09/16 01:40:42;;;;;;;5.03;2.65;;;;;;;;;;2031247;29;20556;-90
2022/09/16 01:42:04;;;;;;;4.18;2.10;;;;;;;;;;2031468;29;20032;-90
2022/09/16 01:43:14;;;;;;;5.00;2.67;;;;;;;;;;2031008;29;20036;-89
2022/09/16 01:44:20;;;;;;;6.15;2.83;;;;;;;;;;2023346;29;20523;-90
2022/09/16 01:45:53;;;;;;;5.93;2.20;;;;;;;;;;2023225;29;20044;-89
2022/09/16 01:47:12;;;;;;;2.70;2.30;;;;;;;;;;1690073;29;10003141;-90
2022/09/16 01:48:28;;;;;;;3.13;2.83;;;;;;;;;;2023498;29;20032;-89
2022/09/16 01:49:31;;;;;;;6.15;2.72;;;;;;;;;;1676953;29;10311890;-90
2022/09/16 01:50:40;;;;;;;4.50;2.75;;;;;;;;;;2030964;29;20098;-90
2022/09/16 01:51:55;;;;;;;3.40;2.80;;;;;;;;;;2023145;29;20040;-90
2022/09/16 01:53:12;;;;;;;5.38;2.70;;;;;;;;;;2025512;29;20039;-90
2022/09/16 01:54:24;;;;;;;4.47;2.42;;;;;;;;;;2030868;29;20043;-89
2022/09/16 01:55:32;;;;;;;5.30;3.08;;;;;;;;;;2031176;29;20038;-89
2022/09/16 01:56:55;;;;;;;4.15;2.50;;;;;;;;;;2031269;29;20024;-90
2022/09/16 01:58:09;;;;;;;4.55;2.80;;;;;;;;;;2023272;29;20044;-90
2022/09/16 01:59:25;;;;;;;7.18;3.17;;;;;;;;;;2025257;29;20074;-90
2022/09/16 02:00:25;;;;;;;3.33;2.75;;;;;;;;;;2023140;29;20068;-90
2022/09/16 02:01:33;;;;;;;3.33;2.67;;;;;;;;;;2023287;29;20058;-90
2022/09/16 02:02:45;;;;;;;4.00;2.58;;;;;;;;;;2024053;29;20377;-89
2022/09/16 02:03:49;;;;;;;5.30;2.78;;;;;;;;;;2031910;29;20037;-90
2022/09/16 02:04:54;;;;;;;4.32;2.60;;;;;;;;;;2031588;29;20036;-90
2022/09/16 02:05:59;;;;;;;4.75;2.30;;;;;;;;;;2023155;29;20040;-89
2022/09/16 02:07:03;;;;;;;3.20;2.45;;;;;;;;;;1681497;29;10136835;-90
2022/09/16 02:08:18;;;;;;;4.03;2.50;;;;;;;;;;2030879;29;20107;-90
2022/09/16 02:09:24;;;;;;;3.03;2.35;;;;;;;;;;2031037;29;20044;-90
2022/09/16 02:10:31;;;;;;;3.83;2.80;;;;;;;;;;2031109;29;20036;-90
2022/09/16 02:11:34;;;;;;;6.72;2.80;;;;;;;;;;2030963;29;20083;-89
2022/09/16 02:12:40;;;;;;;5.03;2.30;;;;;;;;;;2023001;29;20479;-89
2022/09/16 02:13:46;;;;;;;4.22;2.67;;;;;;;;;;2023117;29;20032;-87
2022/09/16 02:14:49;;;;;;;4.80;2.72;;;;;;;;;;2023823;29;20412;-90
2022/09/16 02:15:52;;;;;;;6.70;2.47;;;;;;;;;;2030925;29;20110;-89
2022/09/16 02:17:15;;;;;;;4.47;2.50;;;;;;;;;;1681921;29;10295728;-89
2022/09/16 02:18:20;;;;;;;7.43;2.22;;;;;;;;;;2023171;29;20059;-90
2022/09/16 02:19:28;;;;;;;3.55;2.53;;;;;;;;;;2015808;29;20033;-90
2022/09/16 02:20:31;;;;;;;3.38;2.60;;;;;;;;;;2024281;29;20520;-90
2022/09/16 02:21:35;;;;;;;6.80;3.10;;;;;;;;;;2031726;29;20553;-89
2022/09/16 02:22:45;;;;;;;3.05;2.13;;;;;;;;;;2031738;29;20024;-91
2022/09/16 02:23:50;;;;;;;3.60;2.45;;;;;;;;;;2023193;29;20463;-91
2022/09/16 02:24:51;;;;;;;4.50;2.70;;;;;;;;;;2023507;29;20076;-90
2022/09/16 02:25:54;;;;;;;3.28;2.60;;;;;;;;;;2023240;29;20028;-90
2022/09/16 02:26:59;;;;;;;2.67;2.45;;;;;;;;;;2023119;29;20431;-91
2022/09/16 02:28:05;;;;;;;5.43;3.30;;;;;;;;;;2016172;29;20083;-91
2022/09/16 02:29:16;;;;;;;3.97;2.72;;;;;;;;;;2024106;29;20017;-91
2022/09/16 02:30:20;;;;;;;6.57;2.35;;;;;;;;;;2023067;29;20071;-91
2022/09/16 02:31:31;;;;;;;5.18;2.42;;;;;;;;;;2022933;29;20116;-91
2022/09/16 02:32:35;;;;;;;10.18;2.88;;;;;;;;;;2023311;29;20032;-91
2022/09/16 02:33:50;;;;;;;3.80;2.53;;;;;;;;;;2023564;29;20124;-91
2022/09/16 02:34:53;;;;;;;5.15;2.95;;;;;;;;;;2031258;29;20031;-91
2022/09/16 02:35:56;;;;;;;2.70;2.22;;;;;;;;;;2030948;29;20143;-90
2022/09/16 02:37:05;;;;;;;4.78;2.45;;;;;;;;;;2030067;29;20024;-91
2022/09/16 02:38:13;;;;;;;7.78;2.35;;;;;;;;;;2027108;29;20100;-91
2022/09/16 02:39:17;;;;;;;5.78;2.80;;;;;;;;;;2042232;29;20037;-90
2022/09/16 02:40:29;;;;;;;5.03;2.50;;;;;;;;;;2041741;29;20035;-90
2022/09/16 02:41:30;;;;;;;5.38;2.85;;;;;;;;;;2034908;29;20033;-90
2022/09/16 02:42:31;;;;;;;3.88;2.45;;;;;;;;;;2031651;29;20031;-90
2022/09/16 02:43:32;;;;;;;5.43;3.38;;;;;;;;;;2031061;29;20032;-90
2022/09/16 02:44:33;;;;;;;8.40;2.80;;;;;;;;;;2030928;29;20060;-91
2022/09/16 02:45:48;;;;;;;5.82;2.88;;;;;;;;;;2023139;29;20033;-90
2022/09/16 02:47:00;;;;;;;7.38;2.90;;;;;;;;;;2025246;29;20024;-90
2022/09/16 02:48:26;;;;;;;5.72;3.30;;;;;;;;;;2030839;29;20024;-91
2022/09/16 02:49:52;;;;;;;8.10;2.75;;;;;;;;;;2031046;29;20031;-90
2022/09/16 02:50:59;;;;;;;5.32;3.08;;;;;;;;;;2023244;29;20192;-90
2022/09/16 02:52:12;;;;;;;7.63;2.85;;;;;;;;;;1804143;29;10170088;-90
2022/09/16 02:53:22;;;;;;;6.72;3.03;;;;;;;;;;2033258;29;20233;-90
2022/09/16 02:54:27;;;;;;;5.57;2.78;;;;;;;;;;2033122;29;20097;-91
2022/09/16 02:55:37;;;;;;;4.25;3.15;;;;;;;;;;2024575;29;20032;-91
2022/09/16 02:56:40;;;;;;;5.38;2.80;;;;;;;;;;2024516;29;20039;-90
2022/09/16 02:57:41;;;;;;;5.13;2.97;;;;;;;;;;2017183;29;20108;-90
2022/09/16 02:58:41;;;;;;;6.15;3.00;;;;;;;;;;2024408;29;20025;-91
2022/09/16 02:59:42;;;;;;;4.57;2.65;;;;;;;;;;2024358;29;20031;-89
2022/09/16 03:00:47;;;;;;;5.18;2.58;;;;;;;;;;2024281;29;20432;-90
2022/09/16 03:01:47;;;;;;;6.82;2.80;;;;;;;;;;2032353;29;20038;-90
2022/09/16 03:02:48;;;;;;;4.65;2.90;;;;;;;;;;2032315;29;20028;-90
2022/09/16 03:03:49;;;;;;;4.90;3.17;;;;;;;;;;1676564;29;10306530;-90
2022/09/16 03:04:49;;;;;;;5.88;3.40;;;;;;;;;;2024543;29;20032;-90
2022/09/16 03:06:05;;;;;;;7.07;2.90;;;;;;;;;;2032313;29;20474;-89
2022/09/16 03:07:08;;;;;;;4.13;3.25;;;;;;;;;;2032227;29;20024;-89
2022/09/16 03:08:08;;;;;;;5.43;3.28;;;;;;;;;;2024574;29;20020;-88
2022/09/16 03:09:11;;;;;;;5.00;3.05;;;;;;;;;;2024550;29;20044;-89
2022/09/16 03:10:13;;;;;;;4.13;2.45;;;;;;;;;;2032894;29;20028;-90
2022/09/16 03:11:29;;;;;;;4.00;2.70;;;;;;;;;;2032801;29;20115;-90
2022/09/16 03:12:38;;;;;;;4.05;2.65;;;;;;;;;;2032223;29;20032;-90
2022/09/16 03:13:56;;;;;;;5.95;2.80;;;;;;;;;;2032320;29;20028;-89
2022/09/16 03:15:16;;;;;;;4.60;2.60;;;;;;;;;;2024397;29;20016;-89
2022/09/16 03:16:29;;;;;;;5.50;2.50;;;;;;;;;;2018942;29;20029;-89
2022/09/16 03:17:45;;;;;;;5.82;3.22;;;;;;;;;;2026022;29;20092;-89
2022/09/16 03:19:07;;;;;;;4.00;2.63;;;;;;;;;;2032061;29;20408;-90
2022/09/16 03:20:25;;;;;;;3.72;2.40;;;;;;;;;;2032173;29;20175;-89
2022/09/16 03:21:59;;;;;;;3.42;2.60;;;;;;;;;;2024272;29;20032;-90
2022/09/16 03:23:08;;;;;;;4.18;2.67;;;;;;;;;;2028664;29;20032;-89
2022/09/16 03:24:16;;;;;;;4.78;2.45;;;;;;;;;;2024181;29;20032;-89
2022/09/16 03:25:17;;;;;;;3.97;2.65;;;;;;;;;;2025486;29;20033;-88
2022/09/16 03:26:17;;;;;;;5.97;2.85;;;;;;;;;;2032609;29;20408;-88
2022/09/16 03:27:22;;;;;;;4.10;2.78;;;;;;;;;;2032921;29;20083;-89
2022/09/16 03:28:55;;;;;;;6.90;2.80;;;;;;;;;;2024228;29;20024;-90
2022/09/16 03:30:07;;;;;;;7.90;2.63;;;;;;;;;;2028699;29;20032;-89
2022/09/16 03:31:14;;;;;;;4.05;2.60;;;;;;;;;;2032636;29;20139;-89
2022/09/16 03:32:21;;;;;;;4.93;3.05;;;;;;;;;;2032703;29;20040;-89
2022/09/16 03:33:29;;;;;;;4.80;2.55;;;;;;;;;;2032306;29;20016;-90
2022/09/16 03:34:38;;;;;;;3.22;2.47;;;;;;;;;;2032162;29;20515;-90
2022/09/16 03:35:46;;;;;;;4.57;2.60;;;;;;;;;;2031627;29;20020;-90
2022/09/16 03:36:57;;;;;;;5.03;2.35;;;;;;;;;;2024323;29;20133;-90
2022/09/16 03:38:00;;;;;;;7.60;2.97;;;;;;;;;;2025501;29;20020;-90
2022/09/16 03:39:02;;;;;;;6.90;2.53;;;;;;;;;;2024226;29;20021;-90
2022/09/16 03:40:08;;;;;;;6.20;2.40;;;;;;;;;;2016633;29;20100;-90
2022/09/16 03:41:09;;;;;;;7.38;2.50;;;;;;;;;;2024941;29;20035;-90
2022/09/16 03:42:12;;;;;;;5.05;2.50;;;;;;;;;;2031926;29;20578;-90
2022/09/16 03:43:14;;;;;;;2.85;2.20;;;;;;;;;;2032121;29;20035;-90
2022/09/16 03:44:15;;;;;;;6.88;2.80;;;;;;;;;;2031898;29;20087;-90
2022/09/16 03:45:20;;;;;;;5.07;2.67;;;;;;;;;;2024127;29;20247;-89
2022/09/16 03:46:22;;;;;;;4.97;2.33;;;;;;;;;;2024767;29;20511;-89
2022/09/16 03:47:22;;;;;;;2.92;2.60;;;;;;;;;;2032607;29;20035;-89
2022/09/16 03:48:23;;;;;;;4.75;2.40;;;;;;;;;;2024075;29;20029;-90
2022/09/16 03:49:23;;;;;;;13.23;3.30;;;;;;;;;;2023941;29;20039;-89
2022/09/16 03:50:23;;;;;;;4.88;3.05;;;;;;;;;;2024106;29;20024;-89
2022/09/16 03:51:25;;;;;;;4.53;3.13;;;;;;;;;;2023780;29;20119;-90
2022/09/16 03:52:25;;;;;;;6.20;3.33;;;;;;;;;;2032606;29;20088;-90
2022/09/16 03:53:25;;;;;;;9.10;4.13;;;;;;;;;;2032444;29;20024;-90
2022/09/16 03:54:26;;;;;;;8.02;3.20;;;;;;;;;;2032707;29;20489;-90
2022/09/16 03:55:27;;;;;;;6.28;3.55;;;;;;;;;;2024132;29;20032;-89
2022/09/16 03:56:27;;;;;;;3.45;2.60;;;;;;;;;;2024125;29;20032;-89
2022/09/16 03:57:29;;;;;;;7.45;3.33;;;;;;;;;;1677941;29;10245483;-90
2022/09/16 03:58:29;;;;;;;3.72;2.65;;;;;;;;;;2024301;29;20043;-89
2022/09/16 03:59:30;;;;;;;6.60;2.85;;;;;;;;;;2023999;29;20077;-90
2022/09/16 04:00:31;;;;;;;6.43;2.80;;;;;;;;;;2024005;29;20358;-90
2022/09/16 04:01:32;;;;;;;8.10;3.20;;;;;;;;;;2032544;29;20083;-89
2022/09/16 04:02:32;;;;;;;2.60;2.40;;;;;;;;;;2031580;29;20028;-89
2022/09/16 04:03:35;;;;;;;4.65;2.67;;;;;;;;;;2023856;29;20059;-89
2022/09/16 04:04:35;;;;;;;5.57;2.65;;;;;;;;;;2024309;29;20029;-89
2022/09/16 04:05:36;;;;;;;6.78;2.65;;;;;;;;;;2023849;29;20607;-88
2022/09/16 04:06:36;;;;;;;5.53;2.70;;;;;;;;;;2024072;29;20029;-88
2022/09/16 04:07:37;;;;;;;6.43;2.95;;;;;;;;;;2031641;29;20476;-88
2022/09/16 04:08:38;;;;;;;5.05;2.83;;;;;;;;;;2031992;29;20131;-89
2022/09/16 04:09:38;;;;;;;5.70;2.88;;;;;;;;;;2032366;29;20393;-89
2022/09/16 04:10:39;;;;;;;6.30;3.97;;;;;;;;;;2031662;29;20043;-90
2022/09/16 04:11:40;;;;;;;7.72;4.13;;;;;;;;;;2024048;29;20036;-89
2022/09/16 04:12:40;;;;;;;6.97;3.53;;;;;;;;;;2024237;29;20476;-90
2022/09/16 04:13:40;;;;;;;5.70;3.28;;;;;;;;;;2028377;29;20059;-90
2022/09/16 04:14:41;;;;;;;3.75;3.30;;;;;;;;;;2030974;29;20032;-89
2022/09/16 04:15:41;;;;;;;4.43;2.72;;;;;;;;;;2028879;29;20091;-90
2022/09/16 04:16:42;;;;;;;6.30;3.38;;;;;;;;;;2024042;29;20036;-90
2022/09/16 04:17:42;;;;;;;5.35;2.90;;;;;;;;;;2032263;29;20051;-91
2022/09/16 04:18:43;;;;;;;5.13;4.18;;;;;;;;;;2031856;29;20044;-90
2022/09/16 04:19:43;;;;;;;8.93;3.40;;;;;;;;;;2024196;29;20540;-90
2022/09/16 04:20:44;;;;;;;6.80;3.80;;;;;;;;;;2023972;29;20478;-89
2022/09/16 04:21:45;;;;;;;6.53;3.40;;;;;;;;;;2016352;29;20101;-90
2022/09/16 04:22:48;;;;;;;4.75;3.53;;;;;;;;;;2023956;29;20028;-89
2022/09/16 04:23:49;;;;;;;8.73;4.00;;;;;;;;;;2032077;29;20218;-90
2022/09/16 04:24:52;;;;;;;10.02;3.40;;;;;;;;;;2031706;29;20040;-89
2022/09/16 04:25:58;;;;;;;6.70;3.13;;;;;;;;;;2033094;29;20044;-96
2022/09/16 04:26:59;;;;;;;4.95;3.60;;;;;;;;;;2032268;29;20012;-90
2022/09/16 04:27:59;;;;;;;11.13;3.97;;;;;;;;;;2031758;29;20024;-89
2022/09/16 04:28:59;;;;;;;6.00;3.22;;;;;;;;;;2023864;29;20440;-89
2022/09/16 04:30:01;;;;;;;8.27;4.15;;;;;;;;;;2016190;29;20120;-89
2022/09/16 04:31:03;;;;;;;7.93;3.70;;;;;;;;;;2016181;29;20105;-90
2022/09/16 04:32:04;;;;;;;10.95;4.18;;;;;;;;;;2024085;29;20040;-89
2022/09/16 04:33:04;;;;;;;8.52;4.10;;;;;;;;;;2032192;29;20464;-89
2022/09/16 04:34:04;;;;;;;8.05;4.20;;;;;;;;;;2032301;29;20031;-90
2022/09/16 04:35:05;;;;;;;11.98;4.18;;;;;;;;;;2032444;29;20027;-90
2022/09/16 04:36:11;;;;;;;10.15;3.95;;;;;;;;;;2023922;29;20158;-90
2022/09/16 04:37:13;;;;;;;12.10;4.63;;;;;;;;;;2024411;29;20036;-90
2022/09/16 04:38:13;;;;;;;7.82;4.65;;;;;;;;;;2023833;29;20028;-90
2022/09/16 04:39:14;;;;;;;9.73;4.43;;;;;;;;;;2016142;29;20490;-90
2022/09/16 04:40:15;;;;;;;13.23;4.65;;;;;;;;;;2023769;29;20044;-89
2022/09/16 04:41:22;;;;;;;10.98;4.88;;;;;;;;;;2031609;29;20024;-90
2022/09/16 04:42:22;;;;;;;14.25;4.88;;;;;;;;;;2023784;29;20036;-90
2022/09/16 04:43:22;;;;;;;7.47;4.63;;;;;;;;;;2015894;29;20045;-89
2022/09/16 04:44:23;;;;;;;8.95;3.92;;;;;;;;;;2024040;29;20032;-90
2022/09/16 04:45:23;;;;;;;7.18;3.70;;;;;;;;;;2023578;29;20591;-90
2022/09/16 04:46:29;;;;;;;4.55;3.60;;;;;;;;;;2024338;29;20060;-89
2022/09/16 04:47:29;;;;;;;4.72;3.55;;;;;;;;;;2024733;29;20028;-89
2022/09/16 04:48:30;;;;;;;8.55;4.07;;;;;;;;;;2023638;29;20499;-89
2022/09/16 04:49:30;;;;;;;5.40;3.20;;;;;;;;;;2023748;29;20056;-89
2022/09/16 04:50:31;;;;;;;9.15;4.20;;;;;;;;;;2031384;29;20035;-89
2022/09/16 04:51:32;;;;;;;15.48;3.83;;;;;;;;;;2023540;29;20036;-89
2022/09/16 04:52:33;;;;;;;10.82;3.60;;;;;;;;;;2015796;29;20120;-88
2022/09/16 04:53:34;;;;;;;7.80;3.53;;;;;;;;;;2023854;29;20448;-88
2022/09/16 04:54:37;;;;;;;7.20;3.78;;;;;;;;;;2032241;29;20067;-88
2022/09/16 04:55:37;;;;;;;6.95;3.53;;;;;;;;;;2031230;29;20504;-88
2022/09/16 04:56:38;;;;;;;8.70;4.20;;;;;;;;;;2031448;29;20044;-88
2022/09/16 04:57:38;;;;;;;6.35;3.65;;;;;;;;;;2032234;29;20039;-89
2022/09/16 04:58:39;;;;;;;8.85;3.97;;;;;;;;;;2032644;29;20031;-89
2022/09/16 04:59:39;;;;;;;10.90;4.15;;;;;;;;;;2031331;29;20052;-88
2022/09/16 05:00:42;;;;;;;8.82;3.97;;;;;;;;;;2032055;29;20106;-88
2022/09/16 05:01:44;;;;;;;9.80;4.45;;;;;;;;;;2032093;29;20107;-88
2022/09/16 05:02:45;;;;;;;8.18;3.85;;;;;;;;;;2023452;29;20032;-88
2022/09/16 05:03:48;;;;;;;11.10;3.70;;;;;;;;;;2023528;29;20059;-88
2022/09/16 05:04:49;;;;;;;7.00;3.75;;;;;;;;;;2031859;29;20051;-88
2022/09/16 05:05:49;;;;;;;8.18;3.90;;;;;;;;;;2023458;29;20115;-88
2022/09/16 05:06:52;;;;;;;7.07;3.63;;;;;;;;;;1999454;29;20125;-89
2022/09/16 05:07:52;;;;;;;10.05;4.30;;;;;;;;;;2014478;29;20712;-89
2022/09/16 05:08:54;;;;;;;8.25;3.47;;;;;;;;;;2022925;29;20099;-88
2022/09/16 05:09:55;;;;;;;11.27;4.38;;;;;;;;;;2022920;29;20049;-89
2022/09/16 05:11:02;;;;;;;9.00;3.50;;;;;;;;;;2030956;29;20048;-88
2022/09/16 05:12:02;;;;;;;5.30;3.72;;;;;;;;;;2030892;29;20408;-89
2022/09/16 05:13:07;;;;;;;4.78;3.80;;;;;;;;;;2030725;29;20031;-88
2022/09/16 05:14:14;;;;;;;7.72;4.02;;;;;;;;;;1855119;29;10115412;-89
2022/09/16 05:15:15;;;;;;;10.68;4.85;;;;;;;;;;2015494;29;20446;-88
2022/09/16 05:16:18;;;;;;;7.20;3.90;;;;;;;;;;2022301;29;20048;-88
2022/09/16 05:17:18;;;;;;;12.55;4.68;;;;;;;;;;2030331;29;20190;-89
2022/09/16 05:18:19;;;;;;;7.95;3.33;;;;;;;;;;2030315;29;20028;-88
2022/09/16 05:19:19;;;;;;;9.75;3.60;;;;;;;;;;2030208;29;20277;-88
2022/09/16 05:20:22;;;;;;;6.03;3.83;;;;;;;;;;2022252;29;20067;-89
2022/09/16 05:21:25;;;;;;;5.78;4.05;;;;;;;;;;2022793;29;20207;-88
2022/09/16 05:22:25;;;;;;;13.68;4.30;;;;;;;;;;2022186;29;20200;-89
2022/09/16 05:23:26;;;;;;;9.38;3.90;;;;;;;;;;2022139;29;20020;-89
2022/09/16 05:24:26;;;;;;;7.82;3.90;;;;;;;;;;1675774;29;10268621;-88
2022/09/16 05:25:27;;;;;;;9.30;3.72;;;;;;;;;;2022207;29;20567;-88
2022/09/16 05:26:30;;;;;;;14.57;4.63;;;;;;;;;;2022480;29;20056;-89
2022/09/16 05:27:30;;;;;;;7.65;3.83;;;;;;;;;;2030819;29;20048;-90
2022/09/16 05:28:32;;;;;;;8.55;4.07;;;;;;;;;;2031013;29;20032;-90
2022/09/16 05:29:33;;;;;;;5.57;3.70;;;;;;;;;;2026034;29;20403;-91
2022/09/16 05:30:34;;;;;;;8.48;4.03;;;;;;;;;;2020015;29;20123;-91
2022/09/16 05:31:37;;;;;;;8.43;5.53;;;;;;;;;;2019602;29;20649;-91
2022/09/16 05:32:38;;;;;;;5.85;4.03;;;;;;;;;;2026878;29;20083;-90
2022/09/16 05:33:40;;;;;;;7.15;4.43;;;;;;;;;;2030426;29;20396;-89
2022/09/16 05:34:41;;;;;;;8.25;4.15;;;;;;;;;;2022086;29;20029;-89
2022/09/16 05:35:41;;;;;;;8.45;4.07;;;;;;;;;;2022442;29;20029;-90
2022/09/16 05:36:43;;;;;;;9.55;4.35;;;;;;;;;;2022230;29;20119;-90
2022/09/16 05:37:43;;;;;;;9.90;4.22;;;;;;;;;;1678472;29;10001206;-89
2022/09/16 05:38:44;;;;;;;9.20;4.47;;;;;;;;;;2022902;29;20271;-90
2022/09/16 05:39:44;;;;;;;7.30;4.82;;;;;;;;;;2030288;29;20044;-90
2022/09/16 05:40:45;;;;;;;9.32;4.20;;;;;;;;;;2030443;29;20032;-89
2022/09/16 05:41:46;;;;;;;8.10;4.07;;;;;;;;;;2030601;29;20108;-90
2022/09/16 05:42:49;;;;;;;10.65;4.85;;;;;;;;;;2030371;29;20035;-89
2022/09/16 05:43:50;;;;;;;7.30;4.18;;;;;;;;;;2030102;29;20314;-90
2022/09/16 05:44:51;;;;;;;9.00;4.15;;;;;;;;;;2022650;29;20028;-90
2022/09/16 05:45:53;;;;;;;8.38;4.13;;;;;;;;;;2015204;29;20115;-90
2022/09/16 05:46:54;;;;;;;9.18;4.05;;;;;;;;;;2023164;29;20057;-90
2022/09/16 05:47:54;;;;;;;5.90;4.00;;;;;;;;;;2024009;29;20028;-90
2022/09/16 05:48:55;;;;;;;6.95;4.43;;;;;;;;;;2030359;29;20079;-90
2022/09/16 05:49:55;;;;;;;9.50;3.90;;;;;;;;;;2038852;29;20068;-91
2022/09/16 05:50:59;;;;;;;7.20;3.80;;;;;;;;;;2032578;29;20016;-90
2022/09/16 05:52:01;;;;;;;8.82;3.88;;;;;;;;;;2030365;29;20464;-90
2022/09/16 05:53:01;;;;;;;15.57;6.80;;;;;;;;;;2030516;29;20134;-90
2022/09/16 05:54:02;;;;;;;9.70;5.78;;;;;;;;;;2030466;29;20435;-91
2022/09/16 05:55:03;;;;;;;7.18;4.75;;;;;;;;;;2022800;29;20048;-91
2022/09/16 05:56:07;;;;;;;6.97;4.20;;;;;;;;;;2014801;29;20060;-91
2022/09/16 05:57:08;;;;;;;10.18;5.55;;;;;;;;;;2023401;29;20027;-91
2022/09/16 05:58:08;;;;;;;7.28;4.47;;;;;;;;;;2030475;29;20024;-91
2022/09/16 05:59:10;;;;;;;10.30;4.47;;;;;;;;;;2022840;29;20108;-91
2022/09/16 06:00:11;;;;;;;11.20;4.70;;;;;;;;;;2023112;29;20032;-91
2022/09/16 06:01:17;;;;;;;6.15;3.75;;;;;;;;;;2030836;29;20024;-91
2022/09/16 06:02:58;;;;;;;;;;;;;;;;;;;;;
2022/09/16 06:04:01;;;;;;;10.90;4.10;;;;;;;;;;2031440;29;20024;-91
2022/09/16 06:05:01;;;;;;;6.03;3.83;;;;;;;;;;2032415;29;20032;-91
2022/09/16 06:06:11;;;;;;;7.00;4.45;;;;;;;;;;2031813;29;20016;-91
2022/09/16 06:07:12;;;;;;;8.05;4.10;;;;;;;;;;2031695;29;20039;-91
2022/09/16 06:08:12;;;;;;;7.22;4.07;;;;;;;;;;2031906;29;20051;-91
2022/09/16 06:09:21;;;;;;;6.80;3.70;;;;;;;;;;2031761;29;20054;-91
2022/09/16 06:10:21;;;;;;;7.00;3.95;;;;;;;;;;2031220;29;20024;-91
2022/09/16 06:11:22;;;;;;;6.93;3.88;;;;;;;;;;2030954;29;20067;-91
2022/09/16 06:12:23;;;;;;;5.22;3.15;;;;;;;;;;2031689;29;20107;-91
2022/09/16 06:13:23;;;;;;;7.35;3.17;;;;;;;;;;2031813;29;20100;-91
2022/09/16 06:14:24;;;;;;;4.13;3.17;;;;;;;;;;2031166;29;20087;-91
2022/09/16 06:15:27;;;;;;;4.30;2.90;;;;;;;;;;2030942;29;20028;-91
2022/09/16 06:16:31;;;;;;;3.67;3.03;;;;;;;;;;2034146;29;20115;-96
2022/09/16 06:17:35;;;;;;;4.80;2.75;;;;;;;;;;2034674;29;20130;-96
2022/09/16 06:18:36;;;;;;;6.07;2.90;;;;;;;;;;2031050;29;20034;-91
2022/09/16 06:19:37;;;;;;;3.10;2.42;;;;;;;;;;2031975;29;20031;-90
2022/09/16 06:20:37;;;;;;;5.50;2.70;;;;;;;;;;2031644;29;20411;-91
2022/09/16 06:21:39;;;;;;;4.65;2.85;;;;;;;;;;2031165;29;20032;-90
2022/09/16 06:22:40;;;;;;;4.13;3.63;;;;;;;;;;2031631;29;20047;-90
2022/09/16 06:23:40;;;;;;;5.10;2.83;;;;;;;;;;2030914;29;20028;-90
2022/09/16 06:24:41;;;;;;;6.93;3.05;;;;;;;;;;2030909;29;20031;-90
2022/09/16 06:25:41;;;;;;;6.75;3.22;;;;;;;;;;2030991;29;20063;-90
2022/09/16 06:26:43;;;;;;;2.47;2.17;;;;;;;;;;2024586;29;20020;-91
2022/09/16 06:27:43;;;;;;;5.13;3.08;;;;;;;;;;2025057;29;20025;-91
2022/09/16 06:28:44;;;;;;;3.70;2.30;;;;;;;;;;2032670;29;20111;-91
2022/09/16 06:29:45;;;;;;;3.40;2.30;;;;;;;;;;2033198;29;20028;-91
2022/09/16 06:30:46;;;;;;;7.97;3.08;;;;;;;;;;2032500;29;20028;-91